This is the latest recevied weather packets stored in our database for station/object N5YHM-13. If no packets are shown the sender has not sent any weather packets the latest 1 day(s).
| Time | Temp. | Humidity | Pressure | Rain* | Wind** | Luminosity | Snow |
|---|---|---|---|---|---|---|---|
| 1778091540 | 26.67° C | 92% | 1015.6 hPa | 0 mm | - | 43 W/m² | - |
| 1778091238 | 27.22° C | 91% | 1015.7 hPa | 0 mm | - | 15 W/m² | - |
| 1778090935 | 27.22° C | 90% | 1015.8 hPa | 0 mm | - | 12 W/m² | - |
| 1778090328 | 27.22° C | 89% | 1015.8 hPa | 0 mm | - | 19 W/m² | - |
| 1778089722 | 27.22° C | 89% | 1015.9 hPa | 0 mm | - | 23 W/m² | - |
| 1778088511 | 26.67° C | 90% | 1015.8 hPa | 0 mm | - | 15 W/m² | - |
| 1778087904 | 27.22° C | 89% | 1016.2 hPa | 0 mm | - | 13 W/m² | - |
| 1778086994 | 27.22° C | 90% | 1016.2 hPa | 0 mm | - | 21 W/m² | - |
| 1778085784 | 26.67° C | 91% | 1016.2 hPa | 0 mm | - | 20 W/m² | - |
| 1778085481 | 26.67° C | 90% | 1016.2 hPa | 0 mm | - | 20 W/m² | - |
| 1778085176 | 26.67° C | 91% | 1016.1 hPa | 0 mm | - | 19 W/m² | - |
| 1778084872 | 26.67° C | 91% | 1015.8 hPa | 0 mm | - | 20 W/m² | - |
| 1778084570 | 26.67° C | 92% | 1016 hPa | 0 mm | - | 19 W/m² | - |
| 1778080095 | 25.56° C | 94% | 1015.4 hPa | 0 mm | - | 10 W/m² | - |
| 1778078883 | 25° C | 95% | 1015.4 hPa | 0 mm | - | 15 W/m² | - |
| 1778078278 | 24.44° C | 96% | 1015.1 hPa | 0 mm | - | 9 W/m² | - |
| 1778076464 | 24.44° C | 96% | 1015.2 hPa | 0 mm | - | 4 W/m² | - |
| 1778076161 | 24.44° C | 96% | 1015 hPa | 0 mm | - | 3 W/m² | - |
| 1778075251 | 24.44° C | 96% | 1014.7 hPa | 0 mm | - | 3 W/m² | - |
| 1778074341 | 24.44° C | 96% | 1014.6 hPa | 0 mm | - | 4 W/m² | - |
| 1778072523 | 23.89° C | 97% | 1014.7 hPa | 0 mm | - | 5 W/m² | - |
| 1778072221 | 23.89° C | 97% | 1014.7 hPa | 0 mm | - | 5 W/m² | - |
| 1778070710 | 23.33° C | 97% | 1014.4 hPa | 0 mm | - | 3 W/m² | - |
| 1778070104 | 23.33° C | 97% | 1014.3 hPa | 0 mm | - | 1 W/m² | - |
| 1778068290 | 23.33° C | 97% | 1014.2 hPa | 0 mm | - | 0 W/m² | - |
* Rain latest hour (hover to see other rain measurements)
** Current wind speed in m/s (hover to see current wind gust speed)